Time;durP1;ratioP1;P1;durP2;ratioP2;P2;SDS_P1;SDS_P2;PMS_P1;PMS_P2;Temp;Humidity;BMP_temperature;BMP_pressure;BME280_temperature;BME280_humidity;BME280_pressure;Samples;Min_cycle;Max_cycle;Signal;HPM_P1;HPM_P2
2023/01/03 00:01:20;;;;;;;1.03;1.00;;;11.30;99.90;;;;;;5051956;28;20481;-78
2023/01/03 00:03:49;;;;;;;1.60;0.90;;;11.30;99.90;;;;;;5054242;28;20520;-78
2023/01/03 00:06:18;;;;;;;1.27;1.17;;;11.30;99.90;;;;;;5052428;28;20539;-77
2023/01/03 00:08:47;;;;;;;1.10;1.10;;;11.20;99.90;;;;;;5056619;28;21231;-77
2023/01/03 00:11:17;;;;;;;1.03;1.03;;;11.20;99.90;;;;;;5053047;28;20501;-78
2023/01/03 00:13:45;;;;;;;0.90;0.90;;;11.30;99.90;;;;;;5054156;28;20866;-77
2023/01/03 00:16:19;;;;;;;1.30;1.17;;;11.40;99.90;;;;;;5055697;28;20521;-78
2023/01/03 00:18:47;;;;;;;0.90;0.90;;;11.30;99.90;;;;;;5050776;28;20447;-79
2023/01/03 00:21:15;;;;;;;1.00;1.00;;;11.30;99.90;;;;;;5056433;28;20537;-78
2023/01/03 00:23:43;;;;;;;0.97;0.97;;;11.30;99.90;;;;;;5053357;28;20566;-78
2023/01/03 00:26:14;;;;;;;1.20;1.10;;;11.20;99.90;;;;;;5057126;28;20863;-78
2023/01/03 00:28:42;;;;;;;1.47;1.10;;;11.10;99.90;;;;;;5054031;28;20488;-77
2023/01/03 00:31:12;;;;;;;0.90;0.90;;;11.20;99.90;;;;;;5053805;28;20571;-78
2023/01/03 00:33:42;;;;;;;0.97;0.97;;;11.20;99.90;;;;;;5051761;28;20482;-78
2023/01/03 00:36:10;;;;;;;1.30;1.20;;;11.20;99.90;;;;;;5055879;28;20474;-77
2023/01/03 00:38:39;;;;;;;0.90;0.90;;;11.30;99.90;;;;;;5059549;28;20512;-79
2023/01/03 00:41:09;;;;;;;1.23;1.00;;;11.20;99.90;;;;;;5053694;28;20449;-78
2023/01/03 00:43:38;;;;;;;1.47;1.03;;;11.30;99.90;;;;;;5054380;28;20532;-79
2023/01/03 00:46:07;;;;;;;1.07;1.07;;;11.30;99.90;;;;;;5053001;28;20451;-77
2023/01/03 00:48:36;;;;;;;0.90;0.90;;;11.20;99.90;;;;;;5057119;28;20951;-78
2023/01/03 00:51:07;;;;;;;0.90;0.90;;;11.10;99.90;;;;;;5054765;28;20464;-78
2023/01/03 00:53:37;;;;;;;0.90;0.90;;;11.10;99.90;;;;;;5057514;28;20481;-78
2023/01/03 00:56:06;;;;;;;1.10;1.00;;;11.10;99.90;;;;;;5053734;28;21013;-77
2023/01/03 00:58:35;;;;;;;1.00;1.00;;;11.10;99.90;;;;;;5054418;28;20502;-78
2023/01/03 01:01:07;;;;;;;0.80;0.80;;;11.20;99.90;;;;;;5053965;28;20519;-77
2023/01/03 01:03:36;;;;;;;0.97;0.97;;;11.10;99.90;;;;;;5055005;28;20467;-78
2023/01/03 01:06:13;;;;;;;0.80;0.80;;;11.10;99.90;;;;;;5057991;28;20891;-78
2023/01/03 01:08:42;;;;;;;1.00;1.00;;;11.20;99.90;;;;;;5055861;28;20959;-78
2023/01/03 01:11:11;;;;;;;2.50;1.00;;;11.20;99.90;;;;;;5053177;28;20446;-79
2023/01/03 01:13:41;;;;;;;1.00;1.00;;;11.20;99.90;;;;;;5056087;28;20470;-78
2023/01/03 01:16:12;;;;;;;1.00;1.00;;;11.10;99.90;;;;;;5054712;28;20558;-78
2023/01/03 01:18:41;;;;;;;0.90;0.90;;;11.10;99.90;;;;;;5055145;28;20827;-78
2023/01/03 01:21:13;;;;;;;1.20;1.10;;;11.00;99.90;;;;;;5057601;28;21035;-78
2023/01/03 01:23:42;;;;;;;1.03;1.03;;;11.00;1.00;;;;;;5057771;28;21078;-78
2023/01/03 01:26:14;;;;;;;1.30;1.20;;;11.00;1.00;;;;;;5059242;28;20461;-77
2023/01/03 01:28:42;;;;;;;1.10;1.10;;;11.00;1.00;;;;;;5057659;28;20493;-78
2023/01/03 01:31:13;;;;;;;1.20;1.03;;;11.00;1.00;;;;;;5062282;28;20472;-77
2023/01/03 01:33:42;;;;;;;1.30;1.20;;;11.10;1.00;;;;;;5058187;28;20470;-77
2023/01/03 01:36:15;;;;;;;1.57;1.30;;;10.90;1.00;;;;;;5056870;28;20470;-77
2023/01/03 01:38:44;;;;;;;1.30;1.20;;;10.90;1.00;;;;;;5060196;28;20473;-77
2023/01/03 01:41:14;;;;;;;1.27;1.17;;;10.90;1.00;;;;;;5058134;28;20460;-78
2023/01/03 01:46:42;;;;;;;2.50;1.33;;;10.90;1.00;;;;;;5058965;28;20467;-78
2023/01/03 01:49:16;;;;;;;1.40;1.10;;;10.90;1.00;;;;;;5059043;28;20904;-78
2023/01/03 01:51:46;;;;;;;1.70;1.50;;;10.80;1.00;;;;;;5059058;28;20564;-78
2023/01/03 01:54:15;;;;;;;1.70;1.40;;;10.70;60.00;;;;;;5058219;28;20468;-77
2023/01/03 01:56:48;;;;;;;1.40;1.30;;;10.70;1.00;;;;;;5058016;28;20474;-77
2023/01/03 01:59:16;;;;;;;1.30;1.20;;;10.50;99.90;;;;;;5061763;28;20446;-77
2023/01/03 02:01:47;;;;;;;1.00;1.00;;;10.50;99.90;;;;;;5054096;28;20447;-78
2023/01/03 02:04:21;;;;;;;1.30;1.20;;;10.60;99.90;;;;;;5057629;28;20498;-77
2023/01/03 02:06:51;;;;;;;1.20;1.13;;;10.70;99.90;;;;;;5057656;28;20439;-76
2023/01/03 02:09:20;;;;;;;1.20;1.10;;;10.80;59.10;;;;;;5056133;28;20496;-78
2023/01/03 02:13:04;;;;;;;1.00;1.00;;;10.70;99.90;;;;;;5059839;28;20443;-77
2023/01/03 02:15:04;;;;;;;1.33;1.10;;;10.60;99.90;;;;;;5058075;28;20464;-77
2023/01/03 02:17:39;;;;;;;1.03;1.00;;;10.60;99.90;;;;;;5041608;28;20500;-78
2023/01/03 02:20:31;;;;;;;1.20;1.10;;;10.50;99.90;;;;;;5058193;28;20475;-78
2023/01/03 02:23:29;;;;;;;1.70;0.97;;;10.60;99.90;;;;;;5058297;28;20850;-77
2023/01/03 02:26:26;;;;;;;1.20;1.10;;;10.50;99.90;;;;;;5056578;28;20461;-77
2023/01/03 02:29:19;;;;;;;1.87;1.77;;;10.50;99.90;;;;;;5057917;28;20444;-78
2023/01/03 02:31:56;;;;;;;1.07;1.07;;;10.50;99.90;;;;;;5028393;28;20497;-79
2023/01/03 02:34:32;;;;;;;1.30;1.20;;;10.50;99.90;;;;;;5054062;28;21423;-78
2023/01/03 02:37:09;;;;;;;1.37;1.00;;;10.50;99.90;;;;;;5054106;28;20478;-78
2023/01/03 02:39:43;;;;;;;1.10;1.10;;;10.30;99.90;;;;;;5053729;28;20974;-78
2023/01/03 02:45:08;;;;;;;1.30;1.13;;;10.30;99.90;;;;;;5058201;28;20504;-78
2023/01/03 02:47:46;;;;;;;1.20;1.10;;;10.10;99.90;;;;;;5056102;28;20460;-78
2023/01/03 02:50:15;;;;;;;1.00;1.00;;;10.10;1.00;;;;;;5051410;28;20456;-78
2023/01/03 02:52:46;;;;;;;1.10;1.10;;;10.00;1.00;;;;;;5054445;28;20497;-78
2023/01/03 02:55:18;;;;;;;1.17;1.10;;;10.00;1.00;;;;;;5058428;28;20454;-78
2023/01/03 02:57:52;;;;;;;1.10;1.00;;;10.00;1.00;;;;;;5057548;28;20470;-77
2023/01/03 03:00:23;;;;;;;2.27;1.20;;;10.00;80.80;;;;;;5056113;28;20447;-78
2023/01/03 03:02:58;;;;;;;1.73;1.13;;;10.10;72.30;;;;;;5059271;28;20545;-78
2023/01/03 03:05:31;;;;;;;1.20;1.20;;;10.10;1.00;;;;;;5056387;28;20976;-78
2023/01/03 03:07:59;;;;;;;0.90;0.90;;;10.10;1.00;;;;;;5057570;28;20459;-77
2023/01/03 03:13:24;;;;;;;1.20;1.13;;;10.10;1.00;;;;;;5058221;28;21260;-79
2023/01/03 03:15:57;;;;;;;1.30;1.20;;;9.90;1.00;;;;;;5058001;28;20446;-77
2023/01/03 03:18:47;;;;;;;1.07;1.07;;;9.80;99.90;;;;;;5057407;28;20462;-77
2023/01/03 03:30:01;;;;;;;1.40;1.30;;;9.80;1.00;;;;;;5046970;28;20473;-77
2023/01/03 03:32:33;;;;;;;1.00;1.00;;;9.90;1.00;;;;;;5062001;28;20454;-78
2023/01/03 03:35:06;;;;;;;2.50;1.10;;;9.80;99.90;;;;;;5056090;28;20451;-77
2023/01/03 03:37:38;;;;;;;1.20;1.20;;;9.90;1.00;;;;;;5054472;28;20533;-79
2023/01/03 03:45:51;;;;;;;1.57;1.20;;;9.70;1.00;;;;;;5057231;28;20454;-77
2023/01/03 03:48:25;;;;;;;1.20;1.20;;;9.70;1.00;;;;;;5055866;28;20446;-78
2023/01/03 03:51:00;;;;;;;1.57;1.40;;;9.70;99.90;;;;;;5057498;28;20459;-78
2023/01/03 03:53:33;;;;;;;1.20;1.20;;;9.70;1.00;;;;;;5052767;28;20485;-77
2023/01/03 03:56:05;;;;;;;1.20;1.20;;;9.70;1.00;;;;;;5055910;28;21035;-78
2023/01/03 03:58:38;;;;;;;1.10;1.10;;;9.60;99.90;;;;;;5057676;28;20474;-78
2023/01/03 04:01:07;;;;;;;1.37;1.27;;;9.50;1.00;;;;;;5053578;28;20520;-77
2023/01/03 04:03:38;;;;;;;1.80;1.20;;;9.30;21.80;;;;;;5053763;28;20523;-77
2023/01/03 04:06:13;;;;;;;1.43;1.30;;;9.40;99.90;;;;;;5056644;28;20442;-78
2023/01/03 04:08:42;;;;;;;1.10;1.10;;;9.40;99.90;;;;;;5054270;28;20495;-78
2023/01/03 04:11:10;;;;;;;1.60;1.10;;;9.50;99.90;;;;;;5057752;28;20500;-77
2023/01/03 04:13:39;;;;;;;1.30;1.20;;;9.60;1.00;;;;;;5055313;28;20588;-78
2023/01/03 04:16:08;;;;;;;1.53;1.40;;;9.50;99.90;;;;;;5052315;28;21048;-77
2023/01/03 04:18:36;;;;;;;1.33;1.30;;;9.40;1.00;;;;;;5055336;28;20470;-78
2023/01/03 04:21:04;;;;;;;1.30;1.20;;;9.40;26.80;;;;;;5054715;28;20454;-79
2023/01/03 04:23:33;;;;;;;1.20;1.20;;;9.30;1.00;;;;;;5054946;28;20606;-78
2023/01/03 04:26:02;;;;;;;1.60;1.50;;;9.10;39.00;;;;;;5054107;28;20465;-78
2023/01/03 04:28:30;;;;;;;1.10;1.10;;;9.20;1.00;;;;;;5056859;28;20473;-77
2023/01/03 04:30:58;;;;;;;1.20;1.10;;;9.20;1.00;;;;;;5056655;28;20446;-79
2023/01/03 04:33:26;;;;;;;1.30;1.20;;;9.30;1.00;;;;;;5055282;28;20479;-78
2023/01/03 04:35:55;;;;;;;1.30;1.20;;;9.20;57.70;;;;;;5054924;28;20958;-78
2023/01/03 04:38:23;;;;;;;1.50;1.40;;;9.20;1.00;;;;;;5053481;28;21231;-78
2023/01/03 04:40:52;;;;;;;1.50;1.40;;;9.20;99.90;;;;;;5054324;28;20466;-78
2023/01/03 04:46:06;;;;;;;1.30;1.30;;;9.20;1.00;;;;;;5056399;28;20467;-78
2023/01/03 04:48:34;;;;;;;1.67;1.57;;;9.00;99.90;;;;;;5055798;28;20955;-77
2023/01/03 04:51:02;;;;;;;1.77;1.20;;;9.10;1.00;;;;;;5055657;28;20446;-78
2023/01/03 04:53:31;;;;;;;1.50;1.40;;;9.20;99.90;;;;;;5056339;28;20463;-77
2023/01/03 04:56:00;;;;;;;1.40;1.30;;;9.10;1.00;;;;;;5058680;28;20447;-78
2023/01/03 04:58:28;;;;;;;1.53;1.37;;;9.00;99.90;;;;;;5060035;28;20895;-77
2023/01/03 05:00:59;;;;;;;1.47;1.37;;;9.00;99.90;;;;;;5057880;28;20463;-77
2023/01/03 05:03:28;;;;;;;3.13;1.40;;;9.00;1.00;;;;;;5039359;28;20778;-78
2023/01/03 05:05:59;;;;;;;1.30;1.20;;;9.00;99.90;;;;;;5060416;28;20450;-77
2023/01/03 05:08:28;;;;;;;1.40;1.30;;;8.90;99.90;;;;;;5059361;28;21150;-77
2023/01/03 05:10:56;;;;;;;1.40;1.30;;;8.80;99.90;;;;;;5060669;28;20442;-78
2023/01/03 05:13:25;;;;;;;1.43;1.33;;;8.80;99.90;;;;;;5057756;28;20472;-78
2023/01/03 05:15:54;;;;;;;1.40;1.30;;;9.00;91.10;;;;;;5059772;28;20446;-77
2023/01/03 05:18:22;;;;;;;1.87;1.60;;;8.80;1.00;;;;;;5059098;28;21034;-78
2023/01/03 05:26:22;;;;;;;1.37;1.30;;;8.80;1.00;;;;;;5058782;28;20505;-77
2023/01/03 05:28:54;;;;;;;1.47;1.37;;;8.70;1.00;;;;;;5059504;28;20507;-76
2023/01/03 05:31:22;;;;;;;1.57;1.47;;;8.70;1.00;;;;;;5056850;28;20461;-78
2023/01/03 05:33:50;;;;;;;1.60;1.50;;;8.90;1.00;;;;;;5056909;28;21008;-78
2023/01/03 05:36:18;;;;;;;1.60;1.50;;;9.00;26.80;;;;;;5057479;28;20534;-77
2023/01/03 05:38:46;;;;;;;1.63;1.53;;;9.10;99.90;;;;;;5060051;28;20503;-78
2023/01/03 05:41:58;;;;;;;1.63;1.53;;;9.10;99.90;;;;;;5060376;28;20451;-79
2023/01/03 05:44:06;;;;;;;1.40;1.40;;;9.00;19.20;;;;;;5055453;28;20478;-78
2023/01/03 05:46:35;;;;;;;1.60;1.50;;;9.00;1.00;;;;;;5059832;28;20462;-78
2023/01/03 05:49:03;;;;;;;1.60;1.50;;;9.00;1.00;;;;;;5058399;28;20468;-78
2023/01/03 05:51:31;;;;;;;1.80;1.70;;;9.00;99.90;;;;;;5058957;28;20452;-77
2023/01/03 05:54:00;;;;;;;1.67;1.57;;;8.80;1.00;;;;;;5060107;28;20478;-78
2023/01/03 05:56:28;;;;;;;1.90;1.80;;;8.80;99.90;;;;;;5055527;28;20972;-77
2023/01/03 05:58:56;;;;;;;1.80;1.70;;;8.70;1.00;;;;;;5057779;28;21025;-78
2023/01/03 06:01:27;;;;;;;1.70;1.60;;;8.60;1.00;;;;;;5059750;28;20479;-78
2023/01/03 06:03:55;;;;;;;2.10;1.50;;;8.50;99.90;;;;;;5056052;28;20833;-77
2023/01/03 06:06:23;;;;;;;1.60;1.50;;;8.50;99.90;;;;;;5055825;28;20485;-77
2023/01/03 06:08:52;;;;;;;1.40;1.30;;;8.60;1.00;;;;;;5056147;28;20473;-76
2023/01/03 06:11:21;;;;;;;1.50;1.40;;;8.70;99.90;;;;;;5059898;28;20445;-76
2023/01/03 06:13:49;;;;;;;1.20;1.10;;;8.60;1.00;;;;;;5058309;28;20480;-76
2023/01/03 06:19:07;;;;;;;1.97;1.77;;;8.60;99.90;;;;;;5058616;28;20509;-78
2023/01/03 06:21:36;;;;;;;1.70;1.60;;;8.70;6.00;;;;;;5055813;28;20533;-77
2023/01/03 06:24:05;;;;;;;1.70;1.60;;;8.50;99.90;;;;;;5054955;28;20484;-77
2023/01/03 06:26:34;;;;;;;1.47;1.20;;;8.50;99.90;;;;;;5057081;28;20468;-77
2023/01/03 06:29:02;;;;;;;1.20;1.20;;;8.40;99.90;;;;;;5051821;28;20525;-77
2023/01/03 06:31:31;;;;;;;1.50;1.40;;;8.30;1.00;;;;;;5055013;28;20564;-76
2023/01/03 06:33:59;;;;;;;1.60;1.50;;;8.30;1.00;;;;;;5053197;28;20561;-76
2023/01/03 06:36:30;;;;;;;1.50;1.40;;;8.50;1.00;;;;;;5057574;28;21025;-77
2023/01/03 06:38:59;;;;;;;1.73;1.63;;;8.60;99.90;;;;;;5057434;28;20493;-75
2023/01/03 06:41:27;;;;;;;1.70;1.60;;;8.60;1.00;;;;;;5055661;28;20454;-78
2023/01/03 06:43:55;;;;;;;1.70;1.60;;;8.60;1.00;;;;;;5057916;28;21024;-77
2023/01/03 06:54:54;;;;;;;1.27;1.27;;;8.40;1.00;;;;;;5050838;28;20944;-77
2023/01/03 06:57:22;;;;;;;1.50;1.40;;;8.40;1.00;;;;;;5056941;28;20468;-77
2023/01/03 06:59:54;;;;;;;1.60;1.50;;;8.20;99.90;;;;;;5058035;28;21039;-76
2023/01/03 07:02:22;;;;;;;1.60;1.50;;;8.30;99.90;;;;;;5058142;28;20450;-77
2023/01/03 07:04:51;;;;;;;1.70;1.60;;;8.30;1.00;;;;;;5058822;28;20475;-78
2023/01/03 07:07:21;;;;;;;1.90;1.67;;;8.30;99.90;;;;;;5055627;28;20458;-77
2023/01/03 07:09:49;;;;;;;1.87;1.77;;;8.30;1.00;;;;;;5055694;28;20445;-77
2023/01/03 07:15:05;;;;;;;2.00;1.90;;;8.20;99.90;;;;;;5055693;28;20450;-77
2023/01/03 07:17:33;;;;;;;1.93;1.70;;;8.30;99.90;;;;;;5050551;28;20460;-77
2023/01/03 07:20:01;;;;;;;4.00;2.93;;;8.30;1.00;;;;;;5055939;28;20477;-77
2023/01/03 07:22:31;;;;;;;4.67;3.03;;;8.20;99.90;;;;;;5053616;28;21028;-80
2023/01/03 07:24:59;;;;;;;4.60;3.10;;;8.10;1.00;;;;;;5055536;28;20534;-78
2023/01/03 07:27:27;;;;;;;2.63;2.43;;;8.00;99.90;;;;;;5057550;28;20446;-78
2023/01/03 07:29:55;;;;;;;2.70;2.17;;;8.00;1.00;;;;;;5058368;28;20455;-78
2023/01/03 07:32:24;;;;;;;6.20;2.53;;;7.90;99.90;;;;;;5054367;28;20563;-79
2023/01/03 07:34:52;;;;;;;2.50;2.30;;;7.90;1.00;;;;;;5054138;28;20461;-78
2023/01/03 07:37:20;;;;;;;3.33;2.20;;;8.00;1.00;;;;;;5053973;28;21128;-78
2023/01/03 07:39:50;;;;;;;3.77;2.47;;;8.10;1.00;;;;;;5056126;28;21060;-77
2023/01/03 07:45:04;;;;;;;2.20;2.00;;;8.10;99.90;;;;;;5053965;28;20532;-78
2023/01/03 07:47:33;;;;;;;4.17;2.70;;;7.80;62.10;;;;;;5058838;28;20448;-78
2023/01/03 07:50:01;;;;;;;2.30;1.93;;;7.80;1.00;;;;;;5055899;28;20439;-78
2023/01/03 07:52:29;;;;;;;3.63;2.10;;;7.70;70.40;;;;;;5058253;28;20450;-79
2023/01/03 07:54:59;;;;;;;2.93;2.17;;;7.80;99.90;;;;;;5056711;28;21177;-79
2023/01/03 07:57:28;;;;;;;3.53;2.33;;;7.80;99.90;;;;;;5057023;28;20481;-73
2023/01/03 07:59:56;;;;;;;2.80;2.27;;;7.90;25.00;;;;;;5055514;28;20532;-77
2023/01/03 08:02:24;;;;;;;2.67;2.47;;;8.00;99.90;;;;;;5056814;28;20463;-78
2023/01/03 08:04:52;;;;;;;3.20;3.00;;;8.10;1.00;;;;;;5057549;28;20461;-78
2023/01/03 08:07:20;;;;;;;4.87;3.40;;;8.40;1.00;;;;;;5056394;28;20458;-77
2023/01/03 08:15:21;;;;;;;2.87;2.67;;;8.40;1.00;;;;;;5057176;28;20441;-78
2023/01/03 08:17:50;;;;;;;3.23;3.00;;;8.30;1.00;;;;;;5057814;28;20444;-77
2023/01/03 08:20:18;;;;;;;2.80;2.60;;;8.40;94.60;;;;;;5053706;28;20496;-78
2023/01/03 08:22:46;;;;;;;2.83;2.63;;;8.50;99.90;;;;;;5053288;28;20555;-77
2023/01/03 08:25:14;;;;;;;3.60;3.40;;;8.50;99.90;;;;;;5053577;28;20573;-79
2023/01/03 08:27:44;;;;;;;3.00;2.80;;;8.40;1.00;;;;;;5058614;28;21224;-77
2023/01/03 08:30:17;;;;;;;3.33;3.13;;;8.50;99.90;;;;;;5057963;28;20672;-79
2023/01/03 08:32:46;;;;;;;3.97;3.67;;;8.40;99.90;;;;;;5059563;28;20481;-78
2023/01/03 08:35:14;;;;;;;3.27;2.97;;;8.50;99.90;;;;;;5059744;28;20835;-78
2023/01/03 08:37:43;;;;;;;3.87;2.80;;;8.50;1.00;;;;;;5057627;28;20497;-78
2023/01/03 08:40:15;;;;;;;4.53;3.20;;;8.30;1.00;;;;;;5058074;28;20479;-78
2023/01/03 08:42:46;;;;;;;2.60;2.40;;;8.30;99.90;;;;;;5055304;28;20485;-76
2023/01/03 08:45:17;;;;;;;10.37;7.60;;;8.30;99.90;;;;;;5058473;28;20965;-78
2023/01/03 08:47:46;;;;;;;14.10;11.07;;;8.60;29.90;;;;;;5053682;28;21246;-77
2023/01/03 08:50:15;;;;;;;9.73;6.37;;;8.60;99.90;;;;;;5058387;28;20453;-77
2023/01/03 08:52:43;;;;;;;8.97;6.80;;;8.60;10.50;;;;;;5037536;28;21318;-75
2023/01/03 08:55:12;;;;;;;5.53;5.13;;;8.70;99.90;;;;;;5055327;28;20516;-78
2023/01/03 08:57:40;;;;;;;5.30;4.70;;;8.80;99.90;;;;;;5057592;28;20454;-78
2023/01/03 09:00:11;;;;;;;4.23;3.93;;;8.90;1.00;;;;;;5058166;28;20491;-79
2023/01/03 09:02:39;;;;;;;4.20;2.67;;;8.90;99.90;;;;;;5057451;28;20443;-78
2023/01/03 09:05:09;;;;;;;3.60;3.30;;;8.80;1.00;;;;;;5056226;28;20462;-78
2023/01/03 09:07:37;;;;;;;3.00;2.80;;;8.90;1.00;;;;;;5058774;28;20941;-78
2023/01/03 09:10:06;;;;;;;2.87;2.67;;;9.00;99.90;;;;;;5057799;28;20488;-78
2023/01/03 09:12:34;;;;;;;3.30;3.00;;;9.20;99.90;;;;;;5058131;28;20464;-77
2023/01/03 09:15:03;;;;;;;2.87;2.67;;;9.30;70.70;;;;;;5055260;28;20529;-77
2023/01/03 09:17:32;;;;;;;2.43;2.23;;;9.10;99.90;;;;;;5057504;28;20452;-77
2023/01/03 09:20:00;;;;;;;2.80;2.60;;;9.20;99.90;;;;;;5059632;28;20980;-76
2023/01/03 09:22:28;;;;;;;2.60;2.50;;;9.20;1.00;;;;;;5054858;28;20494;-77
2023/01/03 09:24:56;;;;;;;2.53;2.43;;;9.20;99.90;;;;;;5056533;28;20485;-78
2023/01/03 09:27:25;;;;;;;2.37;2.27;;;9.20;1.00;;;;;;5055005;28;20508;-77
2023/01/03 09:29:53;;;;;;;2.80;2.60;;;9.30;99.90;;;;;;5058980;28;20456;-78
2023/01/03 09:32:21;;;;;;;2.60;2.50;;;9.40;99.90;;;;;;5055174;28;20975;-77
2023/01/03 09:34:50;;;;;;;2.10;1.90;;;9.40;99.90;;;;;;5057651;28;20459;-77
2023/01/03 09:37:18;;;;;;;2.17;2.07;;;9.50;97.70;;;;;;5042967;28;20454;-78
2023/01/03 09:39:46;;;;;;;2.30;2.20;;;9.50;99.90;;;;;;5052968;28;20816;-77
2023/01/03 09:45:08;;;;;;;2.53;2.20;;;9.40;1.00;;;;;;5055237;28;20463;-77
2023/01/03 09:47:38;;;;;;;2.03;1.93;;;9.70;99.90;;;;;;5056549;28;20454;-77
2023/01/03 09:50:17;;;;;;;1.90;1.70;;;9.80;1.00;;;;;;5055705;28;20528;-78
2023/01/03 10:04:57;;;;;;;2.30;2.10;;;10.40;1.00;;;;;;5056574;28;20524;-78
2023/01/03 10:07:43;;;;;;;2.60;2.40;;;10.50;1.00;;;;;;5059920;28;20510;-79
2023/01/03 10:10:17;;;;;;;2.57;2.37;;;10.50;1.00;;;;;;5058616;28;21144;-78
2023/01/03 10:12:57;;;;;;;2.70;1.90;;;10.50;1.00;;;;;;5057053;28;20489;-77
2023/01/03 10:15:39;;;;;;;3.13;2.30;;;10.50;1.00;;;;;;5060487;28;20451;-78
2023/01/03 10:18:23;;;;;;;2.40;1.90;;;10.80;1.00;;;;;;5053750;28;20510;-78
2023/01/03 10:20:56;;;;;;;2.90;1.70;;;10.90;99.90;;;;;;5053720;28;20455;-77
2023/01/03 10:23:26;;;;;;;2.40;2.03;;;11.10;99.90;;;;;;5055246;28;20476;-77
2023/01/03 10:25:55;;;;;;;2.03;1.70;;;11.10;99.90;;;;;;5055540;28;20534;-78
2023/01/03 10:28:28;;;;;;;1.83;1.70;;;11.10;99.90;;;;;;5054331;28;20513;-78
2023/01/03 10:31:13;;;;;;;2.77;1.70;;;11.20;99.90;;;;;;5053646;28;20551;-77
2023/01/03 10:33:44;;;;;;;4.60;3.60;;;11.20;99.90;;;;;;5057006;28;20485;-76
2023/01/03 10:36:13;;;;;;;5.90;3.90;;;11.30;99.90;;;;;;5058080;28;20459;-78
2023/01/03 10:38:43;;;;;;;3.50;3.17;;;11.50;93.40;;;;;;5053438;28;20961;-79
2023/01/03 10:41:29;;;;;;;1.80;1.70;;;11.50;99.90;;;;;;5058831;28;20493;-77
2023/01/03 10:43:59;;;;;;;6.37;5.77;;;11.60;28.90;;;;;;5054381;28;20962;-77
2023/01/03 10:46:28;;;;;;;2.67;2.40;;;11.90;1.00;;;;;;5049268;28;20543;-77
2023/01/03 10:49:11;;;;;;;2.50;2.30;;;12.10;1.00;;;;;;5058863;28;20463;-78
2023/01/03 10:52:00;;;;;;;2.10;2.00;;;12.30;1.00;;;;;;5048206;28;21034;-77
2023/01/03 10:54:44;;;;;;;4.60;4.20;;;12.50;1.00;;;;;;5053792;28;20479;-77
2023/01/03 10:57:35;;;;;;;2.60;2.50;;;12.80;1.00;;;;;;5050352;28;20491;-77
2023/01/03 11:00:20;;;;;;;4.20;2.50;;;13.10;1.00;;;;;;5055217;28;21033;-78
2023/01/03 11:02:49;;;;;;;2.33;1.90;;;13.10;1.00;;;;;;5055530;28;20594;-78
2023/01/03 11:05:20;;;;;;;1.87;1.77;;;13.40;1.00;;;;;;5058207;28;20460;-77
2023/01/03 11:07:54;;;;;;;1.87;1.77;;;13.80;1.00;;;;;;5054228;28;20501;-76
2023/01/03 11:10:28;;;;;;;3.70;2.10;;;13.90;99.90;;;;;;5053215;28;20456;-77
2023/01/03 11:12:58;;;;;;;1.80;1.70;;;14.00;99.90;;;;;;5054477;28;20492;-76
2023/01/03 11:15:38;;;;;;;2.07;1.70;;;14.00;99.90;;;;;;5054351;28;20484;-77
2023/01/03 11:18:16;;;;;;;2.10;2.00;;;13.90;99.90;;;;;;5067757;28;20466;-77
2023/01/03 11:20:50;;;;;;;3.13;2.03;;;14.10;99.90;;;;;;5057019;28;20455;-77
2023/01/03 11:23:26;;;;;;;1.90;1.60;;;14.20;99.90;;;;;;5054207;28;20576;-77
2023/01/03 11:26:05;;;;;;;1.90;1.80;;;14.50;99.90;;;;;;5054287;28;20549;-77
2023/01/03 11:29:02;;;;;;;1.50;1.40;;;14.70;99.90;;;;;;5055683;28;20450;-78
2023/01/03 11:31:41;;;;;;;1.83;1.73;;;14.60;99.90;;;;;;5072231;28;20460;-77
2023/01/03 11:34:34;;;;;;;1.80;1.70;;;14.60;99.90;;;;;;5056540;28;20479;-77
2023/01/03 11:37:30;;;;;;;1.67;1.57;;;14.30;99.90;;;;;;5056318;28;20797;-77
2023/01/03 11:40:10;;;;;;;1.70;1.60;;;13.90;99.90;;;;;;5055618;28;20454;-78
2023/01/03 11:42:48;;;;;;;1.47;1.30;;;13.80;99.90;;;;;;5053059;28;20559;-77
2023/01/03 11:45:37;;;;;;;1.50;1.30;;;14.00;99.90;;;;;;5053246;28;20577;-76
2023/01/03 11:48:46;;;;;;;2.40;1.10;;;13.70;99.90;;;;;;5054297;28;20453;-78
2023/01/03 11:51:21;;;;;;;3.73;3.43;;;13.80;99.90;;;;;;5054576;28;20456;-78
2023/01/03 11:54:01;;;;;;;3.37;3.03;;;13.90;99.90;;;;;;5051390;28;20484;-77
2023/01/03 11:56:33;;;;;;;3.43;2.57;;;13.70;99.90;;;;;;5056076;28;20465;-78
2023/01/03 11:59:22;;;;;;;1.70;1.60;;;13.80;99.90;;;;;;5056501;28;20489;-77
2023/01/03 12:02:26;;;;;;;1.00;1.00;;;13.70;99.90;;;;;;5052605;28;20478;-78
2023/01/03 12:05:07;;;;;;;1.00;1.00;;;14.00;99.90;;;;;;5053992;28;20493;-77
2023/01/03 12:07:46;;;;;;;4.70;3.07;;;14.10;99.90;;;;;;5057295;28;20542;-78
2023/01/03 12:10:20;;;;;;;1.10;1.10;;;13.80;99.90;;;;;;5056562;28;20535;-78
2023/01/03 12:13:09;;;;;;;1.23;1.00;;;14.00;99.90;;;;;;5054321;28;20495;-78
2023/01/03 12:15:46;;;;;;;1.10;1.10;;;14.10;99.90;;;;;;5052539;28;20458;-79
2023/01/03 12:18:24;;;;;;;1.30;1.17;;;14.20;99.90;;;;;;5052572;28;20969;-78
2023/01/03 12:20:58;;;;;;;1.30;1.20;;;14.10;99.90;;;;;;5051723;28;20990;-77
2023/01/03 12:23:35;;;;;;;1.30;1.20;;;14.00;99.90;;;;;;5052541;28;20520;-78
2023/01/03 12:26:08;;;;;;;1.50;1.50;;;14.20;99.90;;;;;;5054595;28;20456;-77
2023/01/03 12:28:40;;;;;;;1.20;1.20;;;14.30;99.90;;;;;;5050156;28;20493;-78
2023/01/03 12:31:19;;;;;;;1.60;1.50;;;14.20;99.90;;;;;;5051800;28;20458;-76
2023/01/03 12:34:02;;;;;;;1.10;1.10;;;13.60;99.90;;;;;;5055161;28;20477;-77
2023/01/03 12:36:39;;;;;;;1.10;1.10;;;13.60;99.90;;;;;;5047467;28;20859;-77
2023/01/03 12:39:21;;;;;;;1.37;1.20;;;13.60;99.90;;;;;;5069397;28;20475;-78
2023/01/03 12:42:00;;;;;;;1.20;1.20;;;13.60;99.90;;;;;;5052975;28;20480;-77
2023/01/03 12:44:32;;;;;;;1.27;1.27;;;13.60;99.90;;;;;;5054989;28;20561;-77
2023/01/03 12:47:02;;;;;;;2.53;1.20;;;13.50;99.90;;;;;;5053098;28;20467;-78
2023/01/03 12:49:35;;;;;;;1.40;1.07;;;13.60;99.90;;;;;;5055234;28;20520;-77
2023/01/03 12:52:03;;;;;;;2.83;1.20;;;13.60;99.90;;;;;;5052494;28;20465;-78
2023/01/03 12:54:40;;;;;;;1.30;1.17;;;13.80;99.90;;;;;;5047905;28;20922;-77
2023/01/03 12:57:44;;;;;;;1.10;1.10;;;13.90;99.90;;;;;;5053492;28;20468;-78
2023/01/03 13:00:22;;;;;;;1.30;1.20;;;14.00;99.90;;;;;;5053368;28;20454;-77
2023/01/03 13:02:55;;;;;;;1.10;1.10;;;13.90;99.90;;;;;;5053885;28;20577;-78
2023/01/03 13:05:30;;;;;;;2.47;1.13;;;13.90;99.90;;;;;;5053750;28;20526;-76
2023/01/03 13:08:05;;;;;;;1.10;1.10;;;14.00;99.90;;;;;;5054953;28;20981;-78
2023/01/03 13:10:39;;;;;;;1.10;1.10;;;13.90;99.90;;;;;;5052861;28;21144;-79
2023/01/03 13:13:13;;;;;;;1.07;1.07;;;14.00;99.90;;;;;;5054168;28;20474;-77
2023/01/03 13:15:41;;;;;;;2.17;1.17;;;13.70;99.90;;;;;;5056118;28;20465;-77
2023/01/03 13:18:33;;;;;;;1.00;1.00;;;13.90;99.90;;;;;;5059289;28;20965;-76
2023/01/03 13:21:22;;;;;;;1.13;1.13;;;13.90;99.90;;;;;;5057754;28;20459;-78
2023/01/03 13:23:58;;;;;;;1.10;1.10;;;13.80;99.90;;;;;;5058663;28;20494;-77
2023/01/03 13:26:27;;;;;;;1.10;1.10;;;13.90;99.90;;;;;;5058591;28;20455;-77
2023/01/03 13:29:34;;;;;;;1.33;1.07;;;13.90;99.90;;;;;;5060638;28;20949;-77
2023/01/03 13:32:04;;;;;;;1.27;1.17;;;14.00;99.90;;;;;;5004053;28;20490;-77
2023/01/03 13:34:35;;;;;;;1.23;1.00;;;13.80;99.90;;;;;;5057861;28;20479;-77
2023/01/03 13:37:16;;;;;;;1.27;1.00;;;13.80;99.90;;;;;;5059431;28;21194;-76
2023/01/03 13:39:56;;;;;;;1.20;1.10;;;13.90;99.90;;;;;;5057192;28;20459;-76
2023/01/03 13:42:29;;;;;;;1.17;1.10;;;13.80;99.90;;;;;;5058780;28;20904;-77
2023/01/03 13:45:26;;;;;;;1.73;1.30;;;13.80;99.90;;;;;;5057862;28;20461;-77
2023/01/03 13:47:55;;;;;;;1.53;1.20;;;13.80;99.90;;;;;;5058163;28;20471;-78
2023/01/03 13:50:29;;;;;;;1.27;1.17;;;14.00;99.90;;;;;;5060936;28;21154;-77
2023/01/03 13:53:00;;;;;;;1.37;1.20;;;14.10;99.90;;;;;;5059794;28;20486;-78
2023/01/03 13:55:35;;;;;;;1.20;1.20;;;13.90;99.90;;;;;;5062713;28;20561;-79
2023/01/03 13:58:24;;;;;;;1.10;1.10;;;13.90;99.90;;;;;;5057482;28;20461;-78
2023/01/03 14:00:53;;;;;;;1.10;1.10;;;13.80;99.90;;;;;;5058951;28;20449;-76
2023/01/03 14:03:42;;;;;;;1.13;1.10;;;13.70;99.90;;;;;;5057572;28;20577;-77
2023/01/03 14:06:42;;;;;;;1.63;1.20;;;13.60;99.90;;;;;;5056350;28;20457;-79
2023/01/03 14:09:46;;;;;;;1.33;1.23;;;13.30;99.90;;;;;;5058105;28;20477;-76
2023/01/03 14:12:28;;;;;;;1.63;1.40;;;13.10;99.90;;;;;;5057280;28;20469;-77
2023/01/03 14:14:58;;;;;;;1.80;1.47;;;13.30;99.90;;;;;;5054974;28;20463;-78
2023/01/03 14:17:30;;;;;;;1.20;1.20;;;13.30;99.90;;;;;;5058394;28;20464;-76
2023/01/03 14:20:03;;;;;;;1.70;1.20;;;13.10;99.90;;;;;;5057409;28;20649;-78
2023/01/03 14:22:38;;;;;;;1.83;1.20;;;13.20;99.90;;;;;;5054479;28;20452;-77
2023/01/03 14:25:09;;;;;;;2.80;1.20;;;13.10;99.90;;;;;;5056234;28;20529;-77
2023/01/03 14:27:39;;;;;;;1.27;1.17;;;13.10;99.90;;;;;;5058157;28;20450;-78
2023/01/03 14:30:21;;;;;;;1.20;1.20;;;13.10;99.90;;;;;;5058928;28;20454;-77
2023/01/03 14:32:49;;;;;;;1.20;1.20;;;13.00;99.90;;;;;;5055797;28;20560;-78
2023/01/03 14:35:35;;;;;;;1.37;1.20;;;12.80;99.90;;;;;;5058695;28;20452;-77